sensor_id;sensor_type;location;lat;lon;timestamp;temperature;humidity
35962;DHT22;22044;48.298;10.008;2024-02-26T00:00:02;4.00;99.90
35962;DHT22;22044;48.298;10.008;2024-02-26T00:02:49;4.10;99.90
35962;DHT22;22044;48.298;10.008;2024-02-26T00:05:36;4.10;99.90
35962;DHT22;22044;48.298;10.008;2024-02-26T00:08:23;4.10;99.90
35962;DHT22;22044;48.298;10.008;2024-02-26T00:11:09;4.10;99.90
35962;DHT22;22044;48.298;10.008;2024-02-26T00:13:54;4.00;99.90
35962;DHT22;22044;48.298;10.008;2024-02-26T00:16:40;4.10;99.90
35962;DHT22;22044;48.298;10.008;2024-02-26T00:19:26;4.10;99.90
35962;DHT22;22044;48.298;10.008;2024-02-26T00:22:13;4.10;99.90
35962;DHT22;22044;48.298;10.008;2024-02-26T00:24:59;4.00;99.90
35962;DHT22;22044;48.298;10.008;2024-02-26T00:27:45;4.00;99.90
35962;DHT22;22044;48.298;10.008;2024-02-26T00:30:31;4.10;99.90
35962;DHT22;22044;48.298;10.008;2024-02-26T00:33:17;4.10;99.90
35962;DHT22;22044;48.298;10.008;2024-02-26T00:36:04;4.10;99.90
35962;DHT22;22044;48.298;10.008;2024-02-26T00:38:51;4.00;99.90
35962;DHT22;22044;48.298;10.008;2024-02-26T00:42:02;4.00;99.90
35962;DHT22;22044;48.298;10.008;2024-02-26T00:44:48;3.90;99.90
35962;DHT22;22044;48.298;10.008;2024-02-26T00:47:34;3.90;99.90
35962;DHT22;22044;48.298;10.008;2024-02-26T00:50:20;3.90;99.90
35962;DHT22;22044;48.298;10.008;2024-02-26T00:53:05;3.80;99.90
35962;DHT22;22044;48.298;10.008;2024-02-26T00:55:54;3.80;99.90
35962;DHT22;22044;48.298;10.008;2024-02-26T00:58:40;3.80;99.90
35962;DHT22;22044;48.298;10.008;2024-02-26T01:01:26;3.80;99.90
35962;DHT22;22044;48.298;10.008;2024-02-26T01:04:13;3.70;99.90
35962;DHT22;22044;48.298;10.008;2024-02-26T01:06:59;3.70;99.90
35962;DHT22;22044;48.298;10.008;2024-02-26T01:09:45;3.80;99.90
35962;DHT22;22044;48.298;10.008;2024-02-26T01:12:33;3.80;99.90
35962;DHT22;22044;48.298;10.008;2024-02-26T01:15:19;3.80;99.90
35962;DHT22;22044;48.298;10.008;2024-02-26T01:18:08;3.80;99.90
35962;DHT22;22044;48.298;10.008;2024-02-26T01:20:53;3.80;99.90
35962;DHT22;22044;48.298;10.008;2024-02-26T01:23:40;3.80;99.90
35962;DHT22;22044;48.298;10.008;2024-02-26T01:26:26;3.80;99.90
35962;DHT22;22044;48.298;10.008;2024-02-26T01:29:13;3.80;99.90
35962;DHT22;22044;48.298;10.008;2024-02-26T01:31:59;3.80;99.90
35962;DHT22;22044;48.298;10.008;2024-02-26T01:34:44;3.80;99.90
35962;DHT22;22044;48.298;10.008;2024-02-26T01:37:30;3.80;99.90
35962;DHT22;22044;48.298;10.008;2024-02-26T01:40:16;3.80;99.90
35962;DHT22;22044;48.298;10.008;2024-02-26T01:43:04;3.70;99.90
35962;DHT22;22044;48.298;10.008;2024-02-26T01:45:51;3.70;99.90
35962;DHT22;22044;48.298;10.008;2024-02-26T01:48:36;3.70;99.90
35962;DHT22;22044;48.298;10.008;2024-02-26T01:51:22;3.70;99.90
35962;DHT22;22044;48.298;10.008;2024-02-26T01:54:09;3.70;99.90
35962;DHT22;22044;48.298;10.008;2024-02-26T01:56:57;3.60;99.90
35962;DHT22;22044;48.298;10.008;2024-02-26T01:59:43;3.60;99.90
35962;DHT22;22044;48.298;10.008;2024-02-26T02:02:31;3.50;99.90
35962;DHT22;22044;48.298;10.008;2024-02-26T02:05:17;3.50;99.90
35962;DHT22;22044;48.298;10.008;2024-02-26T02:08:03;3.50;99.90
35962;DHT22;22044;48.298;10.008;2024-02-26T02:10:50;3.50;99.90
35962;DHT22;22044;48.298;10.008;2024-02-26T02:13:35;3.50;99.90
35962;DHT22;22044;48.298;10.008;2024-02-26T02:16:23;3.50;99.90
35962;DHT22;22044;48.298;10.008;2024-02-26T02:19:10;3.50;99.90
35962;DHT22;22044;48.298;10.008;2024-02-26T02:21:58;3.50;99.90
35962;DHT22;22044;48.298;10.008;2024-02-26T02:24:45;3.50;99.90
35962;DHT22;22044;48.298;10.008;2024-02-26T02:27:31;3.50;99.90
35962;DHT22;22044;48.298;10.008;2024-02-26T02:30:16;3.50;99.90
35962;DHT22;22044;48.298;10.008;2024-02-26T02:33:02;3.50;99.90
35962;DHT22;22044;48.298;10.008;2024-02-26T02:35:48;3.40;99.90
35962;DHT22;22044;48.298;10.008;2024-02-26T02:38:36;3.40;99.90
35962;DHT22;22044;48.298;10.008;2024-02-26T02:41:22;3.40;99.90
35962;DHT22;22044;48.298;10.008;2024-02-26T02:44:08;3.50;99.90
35962;DHT22;22044;48.298;10.008;2024-02-26T02:46:53;3.50;99.90
35962;DHT22;22044;48.298;10.008;2024-02-26T02:49:40;3.40;99.90
35962;DHT22;22044;48.298;10.008;2024-02-26T02:52:25;3.40;99.90
35962;DHT22;22044;48.298;10.008;2024-02-26T02:55:13;3.50;99.90
35962;DHT22;22044;48.298;10.008;2024-02-26T02:57:59;3.50;99.90
35962;DHT22;22044;48.298;10.008;2024-02-26T03:00:45;3.40;99.90
35962;DHT22;22044;48.298;10.008;2024-02-26T03:03:31;3.40;99.90
35962;DHT22;22044;48.298;10.008;2024-02-26T03:06:18;3.30;99.90
35962;DHT22;22044;48.298;10.008;2024-02-26T03:09:05;3.30;99.90
35962;DHT22;22044;48.298;10.008;2024-02-26T03:11:52;3.30;99.90
35962;DHT22;22044;48.298;10.008;2024-02-26T03:14:37;3.30;99.90
35962;DHT22;22044;48.298;10.008;2024-02-26T03:17:23;3.30;99.90
35962;DHT22;22044;48.298;10.008;2024-02-26T03:20:10;3.30;99.90
35962;DHT22;22044;48.298;10.008;2024-02-26T03:22:55;3.30;99.90
35962;DHT22;22044;48.298;10.008;2024-02-26T03:25:41;3.30;99.90
35962;DHT22;22044;48.298;10.008;2024-02-26T03:28:28;3.40;99.90
35962;DHT22;22044;48.298;10.008;2024-02-26T03:31:15;3.40;99.90
35962;DHT22;22044;48.298;10.008;2024-02-26T03:34:00;3.50;99.90
35962;DHT22;22044;48.298;10.008;2024-02-26T03:36:46;3.50;99.90
35962;DHT22;22044;48.298;10.008;2024-02-26T03:39:32;3.50;99.90
35962;DHT22;22044;48.298;10.008;2024-02-26T03:42:18;3.60;99.90
35962;DHT22;22044;48.298;10.008;2024-02-26T03:45:06;3.60;99.90
35962;DHT22;22044;48.298;10.008;2024-02-26T03:47:53;3.70;99.90
35962;DHT22;22044;48.298;10.008;2024-02-26T03:50:41;3.70;99.90
35962;DHT22;22044;48.298;10.008;2024-02-26T03:53:27;3.70;99.90
35962;DHT22;22044;48.298;10.008;2024-02-26T03:56:12;3.70;99.90
35962;DHT22;22044;48.298;10.008;2024-02-26T03:58:58;3.70;99.90
35962;DHT22;22044;48.298;10.008;2024-02-26T04:01:47;3.70;99.90
35962;DHT22;22044;48.298;10.008;2024-02-26T04:04:34;3.70;99.90
35962;DHT22;22044;48.298;10.008;2024-02-26T04:07:20;3.70;99.90
35962;DHT22;22044;48.298;10.008;2024-02-26T04:10:09;3.70;99.90
35962;DHT22;22044;48.298;10.008;2024-02-26T04:12:54;3.70;99.90
35962;DHT22;22044;48.298;10.008;2024-02-26T04:15:44;3.60;99.90
35962;DHT22;22044;48.298;10.008;2024-02-26T04:18:31;3.70;99.90
35962;DHT22;22044;48.298;10.008;2024-02-26T04:21:17;3.50;99.90
35962;DHT22;22044;48.298;10.008;2024-02-26T04:24:04;3.40;99.90
35962;DHT22;22044;48.298;10.008;2024-02-26T04:26:49;3.40;99.90
35962;DHT22;22044;48.298;10.008;2024-02-26T04:29:35;3.30;99.90
35962;DHT22;22044;48.298;10.008;2024-02-26T04:32:21;3.30;99.90
35962;DHT22;22044;48.298;10.008;2024-02-26T04:35:09;3.30;99.90
35962;DHT22;22044;48.298;10.008;2024-02-26T04:37:55;3.40;99.90
35962;DHT22;22044;48.298;10.008;2024-02-26T04:40:42;3.40;99.90
35962;DHT22;22044;48.298;10.008;2024-02-26T04:43:27;3.50;99.90
35962;DHT22;22044;48.298;10.008;2024-02-26T04:46:13;3.50;99.90
35962;DHT22;22044;48.298;10.008;2024-02-26T04:48:59;3.50;99.90
35962;DHT22;22044;48.298;10.008;2024-02-26T04:52:12;3.40;99.90
35962;DHT22;22044;48.298;10.008;2024-02-26T04:55:02;3.30;99.90
35962;DHT22;22044;48.298;10.008;2024-02-26T04:57:47;3.30;99.90
35962;DHT22;22044;48.298;10.008;2024-02-26T05:00:33;3.40;99.90
35962;DHT22;22044;48.298;10.008;2024-02-26T05:03:19;3.40;99.90
35962;DHT22;22044;48.298;10.008;2024-02-26T05:06:05;3.40;99.90
35962;DHT22;22044;48.298;10.008;2024-02-26T05:08:54;3.50;99.90
35962;DHT22;22044;48.298;10.008;2024-02-26T05:11:40;3.50;99.90
35962;DHT22;22044;48.298;10.008;2024-02-26T05:14:26;3.50;99.90
35962;DHT22;22044;48.298;10.008;2024-02-26T05:17:12;3.30;99.90
35962;DHT22;22044;48.298;10.008;2024-02-26T05:19:57;3.30;99.90
35962;DHT22;22044;48.298;10.008;2024-02-26T05:22:43;3.30;99.90
35962;DHT22;22044;48.298;10.008;2024-02-26T05:25:30;3.30;99.90
35962;DHT22;22044;48.298;10.008;2024-02-26T05:28:20;3.30;99.90
35962;DHT22;22044;48.298;10.008;2024-02-26T05:31:05;3.40;99.90
35962;DHT22;22044;48.298;10.008;2024-02-26T05:33:52;3.30;99.90
35962;DHT22;22044;48.298;10.008;2024-02-26T05:36:38;3.30;99.90
35962;DHT22;22044;48.298;10.008;2024-02-26T05:39:24;3.40;99.90
35962;DHT22;22044;48.298;10.008;2024-02-26T05:42:12;3.40;99.90
35962;DHT22;22044;48.298;10.008;2024-02-26T05:44:58;3.20;99.90
35962;DHT22;22044;48.298;10.008;2024-02-26T05:47:49;3.10;99.90
35962;DHT22;22044;48.298;10.008;2024-02-26T05:50:35;3.10;99.90
35962;DHT22;22044;48.298;10.008;2024-02-26T05:53:21;3.10;99.90
35962;DHT22;22044;48.298;10.008;2024-02-26T05:56:06;3.20;99.90
35962;DHT22;22044;48.298;10.008;2024-02-26T05:58:54;3.10;99.90
35962;DHT22;22044;48.298;10.008;2024-02-26T06:01:40;3.20;99.90
35962;DHT22;22044;48.298;10.008;2024-02-26T06:04:26;3.20;99.90
35962;DHT22;22044;48.298;10.008;2024-02-26T06:07:14;3.20;99.90
35962;DHT22;22044;48.298;10.008;2024-02-26T06:10:00;3.30;99.90
35962;DHT22;22044;48.298;10.008;2024-02-26T06:12:46;3.30;99.90
35962;DHT22;22044;48.298;10.008;2024-02-26T06:15:33;3.30;99.90
35962;DHT22;22044;48.298;10.008;2024-02-26T06:18:19;3.30;99.90
35962;DHT22;22044;48.298;10.008;2024-02-26T06:21:09;3.30;99.90
35962;DHT22;22044;48.298;10.008;2024-02-26T06:23:55;3.30;99.90
35962;DHT22;22044;48.298;10.008;2024-02-26T06:26:40;3.20;99.90
35962;DHT22;22044;48.298;10.008;2024-02-26T06:29:26;3.20;99.90
35962;DHT22;22044;48.298;10.008;2024-02-26T06:32:14;3.20;99.90
35962;DHT22;22044;48.298;10.008;2024-02-26T06:35:02;3.10;99.90
35962;DHT22;22044;48.298;10.008;2024-02-26T06:37:50;3.20;99.90
35962;DHT22;22044;48.298;10.008;2024-02-26T06:40:39;3.20;99.90
35962;DHT22;22044;48.298;10.008;2024-02-26T06:43:25;3.10;99.90
35962;DHT22;22044;48.298;10.008;2024-02-26T06:46:10;3.10;99.90
35962;DHT22;22044;48.298;10.008;2024-02-26T06:48:58;3.20;99.90
35962;DHT22;22044;48.298;10.008;2024-02-26T06:51:44;3.30;99.90
35962;DHT22;22044;48.298;10.008;2024-02-26T06:54:29;3.30;99.90
35962;DHT22;22044;48.298;10.008;2024-02-26T06:57:15;3.30;99.90
35962;DHT22;22044;48.298;10.008;2024-02-26T07:00:01;3.30;99.90
35962;DHT22;22044;48.298;10.008;2024-02-26T07:02:48;3.30;99.90
35962;DHT22;22044;48.298;10.008;2024-02-26T07:05:37;3.30;99.90
35962;DHT22;22044;48.298;10.008;2024-02-26T07:08:22;3.20;99.90
35962;DHT22;22044;48.298;10.008;2024-02-26T07:11:08;3.20;99.90
35962;DHT22;22044;48.298;10.008;2024-02-26T07:13:54;3.20;99.90
35962;DHT22;22044;48.298;10.008;2024-02-26T07:16:40;3.20;99.90
35962;DHT22;22044;48.298;10.008;2024-02-26T07:19:26;3.30;99.90
35962;DHT22;22044;48.298;10.008;2024-02-26T07:22:14;3.40;99.90
35962;DHT22;22044;48.298;10.008;2024-02-26T07:25:00;3.50;99.90
35962;DHT22;22044;48.298;10.008;2024-02-26T07:27:46;3.50;99.90
35962;DHT22;22044;48.298;10.008;2024-02-26T07:30:32;3.60;99.90
35962;DHT22;22044;48.298;10.008;2024-02-26T07:33:18;3.70;99.90
35962;DHT22;22044;48.298;10.008;2024-02-26T07:36:05;3.80;99.90
35962;DHT22;22044;48.298;10.008;2024-02-26T07:38:52;3.80;99.90
35962;DHT22;22044;48.298;10.008;2024-02-26T07:41:38;3.80;99.90
35962;DHT22;22044;48.298;10.008;2024-02-26T07:44:24;3.80;99.90
35962;DHT22;22044;48.298;10.008;2024-02-26T07:47:10;3.90;99.90
35962;DHT22;22044;48.298;10.008;2024-02-26T07:50:03;4.00;99.90
35962;DHT22;22044;48.298;10.008;2024-02-26T07:52:49;4.00;99.90
35962;DHT22;22044;48.298;10.008;2024-02-26T07:55:41;4.10;99.90
35962;DHT22;22044;48.298;10.008;2024-02-26T07:58:27;4.20;99.90
35962;DHT22;22044;48.298;10.008;2024-02-26T08:01:13;4.20;99.90
35962;DHT22;22044;48.298;10.008;2024-02-26T08:04:00;4.20;99.90
35962;DHT22;22044;48.298;10.008;2024-02-26T08:06:46;4.20;99.90
35962;DHT22;22044;48.298;10.008;2024-02-26T08:09:32;4.20;99.90
35962;DHT22;22044;48.298;10.008;2024-02-26T08:12:19;4.30;99.90
35962;DHT22;22044;48.298;10.008;2024-02-26T08:15:06;4.30;99.90
35962;DHT22;22044;48.298;10.008;2024-02-26T08:17:52;4.30;99.90
35962;DHT22;22044;48.298;10.008;2024-02-26T08:20:38;4.30;99.90
35962;DHT22;22044;48.298;10.008;2024-02-26T08:23:24;4.30;99.90
35962;DHT22;22044;48.298;10.008;2024-02-26T08:26:11;4.30;99.90
35962;DHT22;22044;48.298;10.008;2024-02-26T08:28:58;4.30;99.90
35962;DHT22;22044;48.298;10.008;2024-02-26T08:31:44;4.30;99.90
35962;DHT22;22044;48.298;10.008;2024-02-26T08:34:30;4.40;99.90
35962;DHT22;22044;48.298;10.008;2024-02-26T08:37:17;4.40;99.90
35962;DHT22;22044;48.298;10.008;2024-02-26T08:40:03;4.50;99.90
35962;DHT22;22044;48.298;10.008;2024-02-26T08:42:48;4.50;99.90
35962;DHT22;22044;48.298;10.008;2024-02-26T08:45:36;4.60;99.90
35962;DHT22;22044;48.298;10.008;2024-02-26T08:48:21;4.70;99.90
35962;DHT22;22044;48.298;10.008;2024-02-26T08:51:08;4.70;99.90
35962;DHT22;22044;48.298;10.008;2024-02-26T08:53:53;4.70;99.90
35962;DHT22;22044;48.298;10.008;2024-02-26T08:56:39;4.80;99.90
35962;DHT22;22044;48.298;10.008;2024-02-26T08:59:25;4.90;99.90
35962;DHT22;22044;48.298;10.008;2024-02-26T09:02:12;4.90;99.90
35962;DHT22;22044;48.298;10.008;2024-02-26T09:04:57;4.90;99.90
35962;DHT22;22044;48.298;10.008;2024-02-26T09:07:43;5.00;99.90
35962;DHT22;22044;48.298;10.008;2024-02-26T09:10:29;5.00;99.90
35962;DHT22;22044;48.298;10.008;2024-02-26T09:13:16;5.00;99.90
35962;DHT22;22044;48.298;10.008;2024-02-26T09:16:06;5.00;99.90
35962;DHT22;22044;48.298;10.008;2024-02-26T09:18:53;5.10;99.90
35962;DHT22;22044;48.298;10.008;2024-02-26T09:21:42;5.10;99.90
35962;DHT22;22044;48.298;10.008;2024-02-26T09:24:28;5.10;99.90
35962;DHT22;22044;48.298;10.008;2024-02-26T09:27:13;5.20;99.90
35962;DHT22;22044;48.298;10.008;2024-02-26T09:29:59;5.20;99.90
35962;DHT22;22044;48.298;10.008;2024-02-26T09:32:46;5.20;99.90
35962;DHT22;22044;48.298;10.008;2024-02-26T09:35:33;5.30;99.90
35962;DHT22;22044;48.298;10.008;2024-02-26T09:38:19;5.30;99.90
35962;DHT22;22044;48.298;10.008;2024-02-26T09:41:05;5.40;99.90
35962;DHT22;22044;48.298;10.008;2024-02-26T09:43:56;5.30;99.90
35962;DHT22;22044;48.298;10.008;2024-02-26T09:46:44;5.40;99.90
35962;DHT22;22044;48.298;10.008;2024-02-26T09:49:30;5.70;99.90
35962;DHT22;22044;48.298;10.008;2024-02-26T09:52:18;6.00;99.90
35962;DHT22;22044;48.298;10.008;2024-02-26T09:55:05;6.10;99.90
35962;DHT22;22044;48.298;10.008;2024-02-26T09:57:53;6.20;99.90
35962;DHT22;22044;48.298;10.008;2024-02-26T10:00:40;6.50;99.90
35962;DHT22;22044;48.298;10.008;2024-02-26T10:03:31;6.60;99.90
35962;DHT22;22044;48.298;10.008;2024-02-26T10:06:20;6.90;99.90
35962;DHT22;22044;48.298;10.008;2024-02-26T10:09:09;7.30;99.90
35962;DHT22;22044;48.298;10.008;2024-02-26T10:11:56;7.50;99.90
35962;DHT22;22044;48.298;10.008;2024-02-26T10:14:43;7.70;99.90
35962;DHT22;22044;48.298;10.008;2024-02-26T10:17:30;7.80;99.90
35962;DHT22;22044;48.298;10.008;2024-02-26T10:20:16;7.80;99.90
35962;DHT22;22044;48.298;10.008;2024-02-26T10:23:03;7.90;99.90
35962;DHT22;22044;48.298;10.008;2024-02-26T10:25:54;8.00;99.90
35962;DHT22;22044;48.298;10.008;2024-02-26T10:28:40;8.30;99.90
35962;DHT22;22044;48.298;10.008;2024-02-26T10:31:26;8.20;99.90
35962;DHT22;22044;48.298;10.008;2024-02-26T10:34:12;8.10;99.90
35962;DHT22;22044;48.298;10.008;2024-02-26T10:37:01;8.10;99.90
35962;DHT22;22044;48.298;10.008;2024-02-26T10:39:47;8.20;99.90
35962;DHT22;22044;48.298;10.008;2024-02-26T10:42:37;8.30;99.90
35962;DHT22;22044;48.298;10.008;2024-02-26T10:45:23;8.20;99.90
35962;DHT22;22044;48.298;10.008;2024-02-26T10:48:12;8.10;99.90
35962;DHT22;22044;48.298;10.008;2024-02-26T10:51:27;8.10;99.90
35962;DHT22;22044;48.298;10.008;2024-02-26T10:54:15;8.20;99.90
35962;DHT22;22044;48.298;10.008;2024-02-26T10:57:03;8.20;99.90
35962;DHT22;22044;48.298;10.008;2024-02-26T10:59:53;8.20;99.90
35962;DHT22;22044;48.298;10.008;2024-02-26T11:02:40;8.30;99.90
35962;DHT22;22044;48.298;10.008;2024-02-26T11:05:26;8.30;99.90
35962;DHT22;22044;48.298;10.008;2024-02-26T11:08:13;8.30;99.90
35962;DHT22;22044;48.298;10.008;2024-02-26T11:10:59;8.30;99.90
35962;DHT22;22044;48.298;10.008;2024-02-26T11:13:46;8.40;99.90
35962;DHT22;22044;48.298;10.008;2024-02-26T11:16:38;8.40;99.90
35962;DHT22;22044;48.298;10.008;2024-02-26T11:19:24;8.40;99.90
35962;DHT22;22044;48.298;10.008;2024-02-26T11:22:12;8.40;99.90
35962;DHT22;22044;48.298;10.008;2024-02-26T11:24:58;8.40;99.90
35962;DHT22;22044;48.298;10.008;2024-02-26T11:27:49;8.40;99.90
35962;DHT22;22044;48.298;10.008;2024-02-26T11:30:39;8.50;99.90
35962;DHT22;22044;48.298;10.008;2024-02-26T11:33:28;8.50;99.90
35962;DHT22;22044;48.298;10.008;2024-02-26T11:36:14;8.60;99.90
35962;DHT22;22044;48.298;10.008;2024-02-26T11:38:59;8.60;99.90
35962;DHT22;22044;48.298;10.008;2024-02-26T11:41:46;8.60;99.90
35962;DHT22;22044;48.298;10.008;2024-02-26T11:44:32;8.70;99.90
35962;DHT22;22044;48.298;10.008;2024-02-26T11:47:19;8.70;99.90
35962;DHT22;22044;48.298;10.008;2024-02-26T11:50:38;8.70;99.90
35962;DHT22;22044;48.298;10.008;2024-02-26T11:53:26;8.70;99.90
35962;DHT22;22044;48.298;10.008;2024-02-26T11:56:15;8.70;99.90
35962;DHT22;22044;48.298;10.008;2024-02-26T11:59:08;8.70;99.90
35962;DHT22;22044;48.298;10.008;2024-02-26T12:01:54;8.80;99.90
35962;DHT22;22044;48.298;10.008;2024-02-26T12:04:42;8.60;99.90
35962;DHT22;22044;48.298;10.008;2024-02-26T12:07:29;8.70;99.90
35962;DHT22;22044;48.298;10.008;2024-02-26T12:10:24;8.70;99.90
35962;DHT22;22044;48.298;10.008;2024-02-26T12:13:11;8.60;99.90
35962;DHT22;22044;48.298;10.008;2024-02-26T12:15:58;8.50;99.90
35962;DHT22;22044;48.298;10.008;2024-02-26T12:18:44;8.50;99.90
35962;DHT22;22044;48.298;10.008;2024-02-26T12:21:30;8.50;99.90
35962;DHT22;22044;48.298;10.008;2024-02-26T12:24:18;8.50;99.90
35962;DHT22;22044;48.298;10.008;2024-02-26T12:27:05;8.50;99.90
35962;DHT22;22044;48.298;10.008;2024-02-26T12:29:51;8.40;99.90
35962;DHT22;22044;48.298;10.008;2024-02-26T12:32:38;8.50;99.90
35962;DHT22;22044;48.298;10.008;2024-02-26T12:35:25;8.50;99.90
35962;DHT22;22044;48.298;10.008;2024-02-26T12:38:12;8.50;99.90
35962;DHT22;22044;48.298;10.008;2024-02-26T12:40:59;8.40;99.90
35962;DHT22;22044;48.298;10.008;2024-02-26T12:43:46;8.40;99.90
35962;DHT22;22044;48.298;10.008;2024-02-26T12:46:32;8.50;99.90
35962;DHT22;22044;48.298;10.008;2024-02-26T12:49:17;8.40;99.90
35962;DHT22;22044;48.298;10.008;2024-02-26T12:52:03;8.50;99.90
35962;DHT22;22044;48.298;10.008;2024-02-26T12:54:51;8.50;99.90
35962;DHT22;22044;48.298;10.008;2024-02-26T12:57:39;8.40;99.90
35962;DHT22;22044;48.298;10.008;2024-02-26T13:00:26;8.40;99.90
35962;DHT22;22044;48.298;10.008;2024-02-26T13:03:13;8.40;99.90
35962;DHT22;22044;48.298;10.008;2024-02-26T13:05:59;8.40;99.90
35962;DHT22;22044;48.298;10.008;2024-02-26T13:08:46;8.40;99.90
35962;DHT22;22044;48.298;10.008;2024-02-26T13:11:32;8.30;99.90
35962;DHT22;22044;48.298;10.008;2024-02-26T13:14:21;8.30;99.90
35962;DHT22;22044;48.298;10.008;2024-02-26T13:17:07;8.30;99.90
35962;DHT22;22044;48.298;10.008;2024-02-26T13:19:52;8.20;99.90
35962;DHT22;22044;48.298;10.008;2024-02-26T13:22:39;8.20;99.90
35962;DHT22;22044;48.298;10.008;2024-02-26T13:25:25;8.20;99.90
35962;DHT22;22044;48.298;10.008;2024-02-26T13:28:14;8.30;99.90
35962;DHT22;22044;48.298;10.008;2024-02-26T13:31:02;8.30;99.90
35962;DHT22;22044;48.298;10.008;2024-02-26T13:33:50;8.30;99.90
35962;DHT22;22044;48.298;10.008;2024-02-26T13:36:39;8.20;99.90
35962;DHT22;22044;48.298;10.008;2024-02-26T13:39:26;8.20;99.90
35962;DHT22;22044;48.298;10.008;2024-02-26T13:42:12;8.20;99.90
35962;DHT22;22044;48.298;10.008;2024-02-26T13:44:59;8.20;99.90
35962;DHT22;22044;48.298;10.008;2024-02-26T13:47:46;8.30;99.90
35962;DHT22;22044;48.298;10.008;2024-02-26T13:50:33;8.40;99.90
35962;DHT22;22044;48.298;10.008;2024-02-26T13:53:19;8.50;99.90
35962;DHT22;22044;48.298;10.008;2024-02-26T13:56:08;8.50;99.90
35962;DHT22;22044;48.298;10.008;2024-02-26T13:58:55;8.50;99.90
35962;DHT22;22044;48.298;10.008;2024-02-26T14:01:41;8.60;99.90
35962;DHT22;22044;48.298;10.008;2024-02-26T14:04:28;8.60;99.90
35962;DHT22;22044;48.298;10.008;2024-02-26T14:07:14;8.60;99.90
35962;DHT22;22044;48.298;10.008;2024-02-26T14:10:04;8.70;99.90
35962;DHT22;22044;48.298;10.008;2024-02-26T14:13:15;8.60;99.90
35962;DHT22;22044;48.298;10.008;2024-02-26T14:16:01;8.70;99.90
35962;DHT22;22044;48.298;10.008;2024-02-26T14:18:46;8.70;99.90
35962;DHT22;22044;48.298;10.008;2024-02-26T14:21:35;8.70;99.90
35962;DHT22;22044;48.298;10.008;2024-02-26T14:24:48;8.70;99.90
35962;DHT22;22044;48.298;10.008;2024-02-26T14:27:34;8.70;99.90
35962;DHT22;22044;48.298;10.008;2024-02-26T14:30:20;8.70;99.90
35962;DHT22;22044;48.298;10.008;2024-02-26T14:33:08;8.70;99.90
35962;DHT22;22044;48.298;10.008;2024-02-26T14:36:05;8.70;99.90
35962;DHT22;22044;48.298;10.008;2024-02-26T14:38:52;8.70;99.90
35962;DHT22;22044;48.298;10.008;2024-02-26T14:41:38;8.70;99.90
35962;DHT22;22044;48.298;10.008;2024-02-26T14:44:24;8.70;99.90
35962;DHT22;22044;48.298;10.008;2024-02-26T14:47:11;8.80;99.90
35962;DHT22;22044;48.298;10.008;2024-02-26T14:49:57;8.80;99.90
35962;DHT22;22044;48.298;10.008;2024-02-26T14:52:43;8.80;99.90
35962;DHT22;22044;48.298;10.008;2024-02-26T14:55:30;8.80;99.90
35962;DHT22;22044;48.298;10.008;2024-02-26T14:58:16;8.80;99.90
35962;DHT22;22044;48.298;10.008;2024-02-26T15:01:02;8.70;99.90
35962;DHT22;22044;48.298;10.008;2024-02-26T15:03:49;8.70;99.90
35962;DHT22;22044;48.298;10.008;2024-02-26T15:06:38;8.80;99.90
35962;DHT22;22044;48.298;10.008;2024-02-26T15:09:23;8.70;99.90
35962;DHT22;22044;48.298;10.008;2024-02-26T15:12:10;8.60;99.90
35962;DHT22;22044;48.298;10.008;2024-02-26T15:14:59;8.60;99.90
35962;DHT22;22044;48.298;10.008;2024-02-26T15:17:44;8.60;99.90
35962;DHT22;22044;48.298;10.008;2024-02-26T15:20:30;8.60;99.90
35962;DHT22;22044;48.298;10.008;2024-02-26T15:23:16;8.60;99.90
35962;DHT22;22044;48.298;10.008;2024-02-26T15:26:02;8.60;99.90
35962;DHT22;22044;48.298;10.008;2024-02-26T15:28:50;8.60;99.90
35962;DHT22;22044;48.298;10.008;2024-02-26T15:31:35;8.50;99.90
35962;DHT22;22044;48.298;10.008;2024-02-26T15:34:21;8.50;99.90
35962;DHT22;22044;48.298;10.008;2024-02-26T15:37:07;8.50;99.90
35962;DHT22;22044;48.298;10.008;2024-02-26T15:39:54;8.40;99.90
35962;DHT22;22044;48.298;10.008;2024-02-26T15:42:40;8.50;99.90
35962;DHT22;22044;48.298;10.008;2024-02-26T15:45:28;8.50;99.90
35962;DHT22;22044;48.298;10.008;2024-02-26T15:48:16;8.50;99.90
35962;DHT22;22044;48.298;10.008;2024-02-26T15:51:03;8.50;99.90
35962;DHT22;22044;48.298;10.008;2024-02-26T15:53:48;8.40;99.90
35962;DHT22;22044;48.298;10.008;2024-02-26T15:56:35;8.50;99.90
35962;DHT22;22044;48.298;10.008;2024-02-26T15:59:21;8.40;99.90
35962;DHT22;22044;48.298;10.008;2024-02-26T16:02:34;8.40;99.90
35962;DHT22;22044;48.298;10.008;2024-02-26T16:05:19;8.40;99.90
35962;DHT22;22044;48.298;10.008;2024-02-26T16:08:07;8.40;99.90
35962;DHT22;22044;48.298;10.008;2024-02-26T16:10:55;8.40;99.90
35962;DHT22;22044;48.298;10.008;2024-02-26T16:13:42;8.40;99.90
35962;DHT22;22044;48.298;10.008;2024-02-26T16:16:29;8.40;99.90
35962;DHT22;22044;48.298;10.008;2024-02-26T16:19:19;8.30;99.90
35962;DHT22;22044;48.298;10.008;2024-02-26T16:22:05;8.30;99.90
35962;DHT22;22044;48.298;10.008;2024-02-26T16:24:51;8.30;99.90
35962;DHT22;22044;48.298;10.008;2024-02-26T16:27:37;8.30;99.90
35962;DHT22;22044;48.298;10.008;2024-02-26T16:30:25;8.20;99.90
35962;DHT22;22044;48.298;10.008;2024-02-26T16:33:35;8.20;99.90
35962;DHT22;22044;48.298;10.008;2024-02-26T16:36:23;8.20;99.90
35962;DHT22;22044;48.298;10.008;2024-02-26T16:39:09;8.20;99.90
35962;DHT22;22044;48.298;10.008;2024-02-26T16:42:20;8.20;99.90
35962;DHT22;22044;48.298;10.008;2024-02-26T16:45:25;8.10;99.90
35962;DHT22;22044;48.298;10.008;2024-02-26T16:48:34;8.10;99.90
35962;DHT22;22044;48.298;10.008;2024-02-26T16:51:40;8.10;99.90
35962;DHT22;22044;48.298;10.008;2024-02-26T16:54:44;8.10;99.90
35962;DHT22;22044;48.298;10.008;2024-02-26T16:57:30;8.10;99.90
35962;DHT22;22044;48.298;10.008;2024-02-26T17:00:17;8.10;99.90
35962;DHT22;22044;48.298;10.008;2024-02-26T17:03:03;8.10;99.90
35962;DHT22;22044;48.298;10.008;2024-02-26T17:05:49;8.20;99.90
35962;DHT22;22044;48.298;10.008;2024-02-26T17:08:36;8.10;99.90
35962;DHT22;22044;48.298;10.008;2024-02-26T17:11:23;8.10;99.90
35962;DHT22;22044;48.298;10.008;2024-02-26T17:14:09;8.00;99.90
35962;DHT22;22044;48.298;10.008;2024-02-26T17:16:55;8.00;99.90
35962;DHT22;22044;48.298;10.008;2024-02-26T17:19:43;8.00;99.90
35962;DHT22;22044;48.298;10.008;2024-02-26T17:22:29;7.90;99.90
35962;DHT22;22044;48.298;10.008;2024-02-26T17:25:16;7.90;99.90
35962;DHT22;22044;48.298;10.008;2024-02-26T17:28:03;7.80;99.90
35962;DHT22;22044;48.298;10.008;2024-02-26T17:30:49;7.90;99.90
35962;DHT22;22044;48.298;10.008;2024-02-26T17:33:34;7.90;99.90
35962;DHT22;22044;48.298;10.008;2024-02-26T17:36:20;7.80;99.90